createdAt,value
2018-09-06T00:02:17.769Z,16.52
2018-09-06T00:04:51.298Z,16.47
2018-09-06T00:07:24.700Z,16.44
2018-09-06T00:09:58.121Z,16.42
2018-09-06T00:12:31.540Z,16.41
2018-09-06T00:15:05.033Z,16.34
2018-09-06T00:17:38.416Z,16.31
2018-09-06T00:20:11.914Z,16.29
2018-09-06T00:22:45.339Z,16.30
2018-09-06T00:25:18.922Z,16.28
2018-09-06T00:27:52.327Z,16.29
2018-09-06T00:30:25.748Z,16.25
2018-09-06T00:32:59.184Z,16.24
2018-09-06T00:35:32.638Z,16.22
2018-09-06T00:38:06.062Z,16.19
2018-09-06T00:40:39.923Z,16.17
2018-09-06T00:43:13.344Z,16.13
2018-09-06T00:45:46.880Z,16.09
2018-09-06T00:48:20.359Z,16.09
2018-09-06T00:50:53.783Z,16.07
2018-09-06T00:53:27.209Z,16.08
2018-09-06T00:56:00.647Z,16.06
2018-09-06T00:58:34.085Z,16.05
2018-09-06T01:01:07.511Z,16.04
2018-09-06T01:03:40.916Z,16.02
2018-09-06T01:06:14.391Z,15.98
2018-09-06T01:08:47.864Z,15.93
2018-09-06T01:11:21.348Z,15.93
2018-09-06T01:13:54.789Z,15.94
2018-09-06T01:16:28.186Z,15.93
2018-09-06T01:19:01.601Z,15.96
2018-09-06T01:21:35.076Z,15.97
2018-09-06T01:24:08.520Z,15.92
2018-09-06T01:26:42.031Z,15.88
2018-09-06T01:29:15.404Z,15.84
2018-09-06T01:31:48.885Z,15.80
2018-09-06T01:34:22.283Z,15.72
2018-09-06T01:36:55.768Z,15.67
2018-09-06T01:39:29.165Z,15.65
2018-09-06T01:42:02.589Z,15.67
2018-09-06T01:44:36.016Z,15.68
2018-09-06T01:47:09.434Z,15.65
2018-09-06T01:49:42.840Z,15.64
2018-09-06T01:52:16.254Z,15.64
2018-09-06T01:54:49.698Z,15.67
2018-09-06T01:57:23.136Z,15.70
2018-09-06T01:59:56.577Z,15.70
2018-09-06T02:02:30.012Z,15.69
2018-09-06T02:05:03.405Z,15.68
2018-09-06T02:07:36.815Z,15.65
2018-09-06T02:10:10.239Z,15.62
2018-09-06T02:12:43.643Z,15.60
2018-09-06T02:15:17.114Z,15.60
2018-09-06T02:17:50.575Z,15.58
2018-09-06T02:20:24.088Z,15.54
2018-09-06T02:22:57.625Z,15.48
2018-09-06T02:25:31.150Z,15.43
2018-09-06T02:28:04.585Z,15.37
2018-09-06T02:30:37.986Z,15.33
2018-09-06T02:33:11.460Z,15.33
2018-09-06T02:35:44.906Z,15.37
2018-09-06T02:38:18.366Z,15.35
2018-09-06T02:40:51.924Z,15.31
2018-09-06T02:43:25.525Z,15.27
2018-09-06T02:45:58.944Z,15.27
2018-09-06T02:48:37.418Z,15.24
2018-09-06T02:51:16.047Z,15.27
2018-09-06T02:53:49.682Z,15.26
2018-09-06T02:56:23.134Z,15.26
2018-09-06T02:58:56.544Z,15.22
2018-09-06T03:01:29.983Z,15.21
2018-09-06T03:04:03.479Z,15.19
2018-09-06T03:06:36.902Z,15.20
2018-09-06T03:09:11.233Z,15.19
2018-09-06T03:11:50.423Z,15.17
2018-09-06T03:14:24.093Z,15.16
2018-09-06T03:16:57.494Z,15.17
2018-09-06T03:19:30.954Z,15.19
2018-09-06T03:22:04.368Z,15.20
2018-09-06T03:24:37.859Z,15.15
2018-09-06T03:27:11.256Z,15.12
2018-09-06T03:29:44.781Z,15.12
2018-09-06T03:32:18.240Z,15.09
2018-09-06T03:34:51.729Z,15.09
2018-09-06T03:37:25.361Z,15.07
2018-09-06T03:39:58.956Z,15.06
2018-09-06T03:42:32.409Z,15.05
2018-09-06T03:45:05.958Z,14.99
2018-09-06T03:47:39.416Z,14.94
2018-09-06T03:50:12.832Z,14.92
2018-09-06T03:52:46.304Z,14.88
2018-09-06T03:55:19.757Z,14.89
2018-09-06T03:57:53.224Z,14.84
2018-09-06T04:00:26.667Z,14.81
2018-09-06T04:03:00.167Z,14.81
2018-09-06T04:05:33.608Z,14.80
2018-09-06T04:08:07.090Z,14.78
2018-09-06T04:10:40.529Z,14.76
2018-09-06T04:13:13.970Z,14.72
2018-09-06T04:15:47.357Z,14.67
2018-09-06T04:18:20.843Z,14.63
2018-09-06T04:20:54.197Z,14.61
2018-09-06T04:23:27.693Z,14.62
2018-09-06T04:26:01.173Z,14.64
2018-09-06T04:28:34.737Z,14.66
2018-09-06T04:31:08.237Z,14.64
2018-09-06T04:33:41.711Z,14.58
2018-09-06T04:36:15.289Z,14.55
2018-09-06T04:38:48.689Z,14.49
2018-09-06T04:41:22.116Z,14.45
2018-09-06T04:43:55.589Z,14.45
2018-09-06T04:46:29.061Z,14.47
2018-09-06T04:49:02.942Z,14.47
2018-09-06T04:51:36.404Z,14.47
2018-09-06T04:54:09.890Z,14.50
2018-09-06T04:56:44.156Z,14.54
2018-09-06T04:59:17.611Z,14.53
2018-09-06T05:01:51.051Z,14.48
2018-09-06T05:04:24.653Z,14.44
2018-09-06T05:06:58.064Z,14.44
2018-09-06T05:09:31.597Z,14.45
2018-09-06T05:12:05.060Z,14.43
2018-09-06T05:14:38.559Z,14.41
2018-09-06T05:17:12.003Z,14.45
2018-09-06T05:19:45.685Z,14.48
2018-09-06T05:22:19.087Z,14.56
2018-09-06T05:24:52.576Z,14.66
2018-09-06T05:27:26.100Z,14.71
2018-09-06T05:29:59.541Z,14.75
2018-09-06T05:32:33.097Z,14.80
2018-09-06T05:35:06.545Z,14.89
2018-09-06T05:37:40.068Z,14.96
2018-09-06T05:40:13.517Z,15.03
2018-09-06T05:42:46.968Z,15.15
2018-09-06T05:45:20.435Z,15.30
2018-09-06T05:47:59.902Z,15.43
2018-09-06T05:50:33.409Z,15.52
2018-09-06T05:53:06.861Z,15.60
2018-09-06T05:55:40.368Z,15.75
2018-09-06T05:58:13.819Z,15.93
2018-09-06T06:00:49.385Z,16.14
2018-09-06T06:03:23.038Z,16.37
2018-09-06T06:05:56.555Z,16.55
2018-09-06T06:08:42.178Z,16.76
2018-09-06T06:11:15.643Z,17.03
2018-09-06T06:13:49.208Z,17.18
2018-09-06T06:16:22.740Z,17.40
2018-09-06T06:18:56.184Z,17.58
2018-09-06T06:21:29.615Z,17.78
2018-09-06T06:24:03.253Z,17.99
2018-09-06T06:26:36.684Z,18.15
2018-09-06T06:29:10.137Z,18.12
2018-09-06T06:31:43.599Z,18.38
2018-09-06T06:34:17.012Z,18.49
2018-09-06T06:36:50.520Z,18.69
2018-09-06T06:39:23.970Z,18.91
2018-09-06T06:41:57.395Z,19.15
2018-09-06T06:44:30.806Z,19.20
2018-09-06T06:47:04.281Z,19.32
2018-09-06T06:49:37.720Z,19.54
2018-09-06T06:52:11.184Z,19.61
2018-09-06T06:54:44.603Z,19.70
2018-09-06T06:57:18.138Z,19.83
2018-09-06T06:59:51.553Z,20.01
2018-09-06T07:02:25.030Z,20.12
2018-09-06T07:04:58.505Z,20.41
2018-09-06T07:07:31.975Z,20.28
2018-09-06T07:10:09.246Z,20.18
2018-09-06T07:12:42.699Z,20.34
2018-09-06T07:15:16.134Z,20.54
2018-09-06T07:17:49.611Z,20.67
2018-09-06T07:20:23.029Z,20.69
2018-09-06T07:22:56.455Z,20.52
2018-09-06T07:25:29.918Z,20.65
2018-09-06T07:28:03.476Z,20.86
2018-09-06T07:30:36.965Z,21.09
2018-09-06T07:33:10.431Z,21.08
2018-09-06T07:35:43.793Z,21.12
2018-09-06T07:38:17.215Z,21.35
2018-09-06T07:40:50.643Z,21.40
2018-09-06T07:43:24.047Z,21.43
2018-09-06T07:45:57.488Z,21.70
2018-09-06T07:48:30.881Z,21.96
2018-09-06T07:51:04.327Z,21.98
2018-09-06T07:53:38.082Z,22.00
2018-09-06T07:56:11.740Z,22.00
2018-09-06T07:58:45.207Z,22.17
2018-09-06T08:01:18.769Z,22.36
2018-09-06T08:03:52.199Z,22.42
2018-09-06T08:06:25.603Z,22.68
2018-09-06T08:08:59.061Z,22.69
2018-09-06T08:11:32.515Z,22.89
2018-09-06T08:14:05.984Z,22.82
2018-09-06T08:16:39.529Z,22.68
2018-09-06T08:19:13.187Z,22.66
2018-09-06T08:21:46.696Z,22.80
2018-09-06T08:24:20.191Z,23.08
2018-09-06T08:26:53.542Z,23.39
2018-09-06T08:29:26.988Z,23.49
2018-09-06T08:32:00.416Z,23.51
2018-09-06T08:34:33.887Z,23.56
2018-09-06T08:37:07.344Z,23.69
2018-09-06T08:39:40.730Z,23.99
2018-09-06T08:42:14.129Z,24.35
2018-09-06T08:44:47.551Z,24.67
2018-09-06T08:47:23.853Z,25.00
2018-09-06T08:49:57.240Z,24.98
2018-09-06T08:52:30.657Z,24.92
2018-09-06T08:55:04.101Z,24.73
2018-09-06T08:57:37.501Z,24.93
2018-09-06T09:00:10.947Z,24.97
2018-09-06T09:02:44.443Z,24.85
2018-09-06T09:05:17.804Z,24.96
2018-09-06T09:07:51.296Z,24.93
2018-09-06T09:10:24.712Z,25.05
2018-09-06T09:12:58.206Z,24.95
2018-09-06T09:15:31.645Z,25.01
2018-09-06T09:18:05.128Z,25.30
2018-09-06T09:20:38.543Z,25.17
2018-09-06T09:23:12.055Z,25.20
2018-09-06T09:25:45.532Z,25.57
2018-09-06T09:28:18.967Z,25.97
2018-09-06T09:30:52.383Z,25.93
2018-09-06T09:33:25.789Z,25.86
2018-09-06T09:35:59.342Z,26.21
2018-09-06T09:38:32.715Z,26.36
2018-09-06T09:41:06.231Z,26.40
2018-09-06T09:43:39.985Z,26.41
2018-09-06T09:48:45.903Z,26.33
2018-09-06T09:51:19.344Z,26.38
2018-09-06T09:53:52.819Z,26.46
2018-09-06T09:56:26.223Z,26.72
2018-09-06T09:58:59.686Z,26.41
2018-09-06T10:01:38.245Z,26.41
2018-09-06T10:04:17.070Z,26.33
2018-09-06T10:06:55.750Z,26.38
2018-09-06T10:09:29.214Z,26.44
2018-09-06T10:12:02.593Z,26.27
2018-09-06T10:14:38.913Z,26.40
2018-09-06T10:17:12.304Z,26.31
2018-09-06T10:19:45.741Z,26.13
2018-09-06T10:22:19.120Z,26.27
2018-09-06T10:24:59.206Z,26.36
2018-09-06T10:27:32.816Z,26.18
2018-09-06T10:30:06.381Z,25.96
2018-09-06T10:32:40.531Z,26.22
2018-09-06T10:35:13.968Z,26.36
2018-09-06T10:37:47.468Z,26.76
2018-09-06T10:40:20.867Z,27.01
2018-09-06T10:42:54.830Z,27.12
2018-09-06T10:45:28.273Z,26.97
2018-09-06T10:48:01.696Z,27.31
2018-09-06T10:50:35.187Z,27.75
2018-09-06T10:53:08.641Z,27.95
2018-09-06T10:55:42.072Z,27.78
2018-09-06T10:58:15.496Z,28.17
2018-09-06T11:00:48.997Z,28.00
2018-09-06T11:03:22.447Z,27.94
2018-09-06T11:05:55.896Z,28.22
2018-09-06T11:08:29.488Z,28.43
2018-09-06T11:11:02.948Z,28.48
2018-09-06T11:13:36.356Z,28.22
2018-09-06T11:16:09.829Z,28.24
2018-09-06T11:18:43.225Z,28.76
2018-09-06T11:21:16.703Z,29.05
2018-09-06T11:23:50.043Z,29.11
2018-09-06T11:26:23.427Z,29.14
2018-09-06T11:28:56.812Z,29.01
2018-09-06T11:31:30.249Z,28.78
2018-09-06T11:34:03.609Z,28.29
2018-09-06T11:36:37.045Z,28.59
2018-09-06T11:39:10.881Z,28.51
2018-09-06T11:41:44.348Z,28.75
2018-09-06T11:44:17.769Z,28.53
2018-09-06T11:46:51.280Z,28.30
2018-09-06T11:49:24.662Z,28.05
2018-09-06T11:51:58.129Z,28.10
2018-09-06T11:54:31.600Z,28.17
2018-09-06T11:57:05.191Z,28.18
2018-09-06T11:59:38.583Z,28.13
2018-09-06T12:02:11.995Z,27.94
2018-09-06T12:04:45.407Z,27.97
2018-09-06T12:07:18.810Z,27.94
2018-09-06T12:09:52.226Z,28.01
2018-09-06T12:12:25.642Z,27.87
2018-09-06T12:14:59.046Z,27.82
2018-09-06T12:17:32.499Z,27.57
2018-09-06T12:20:06.124Z,27.68
2018-09-06T12:22:39.688Z,27.63
2018-09-06T12:25:13.193Z,27.60
2018-09-06T12:27:46.580Z,27.38
2018-09-06T12:30:20.900Z,27.47
2018-09-06T12:32:54.287Z,27.62
2018-09-06T12:35:27.699Z,27.85
2018-09-06T12:38:01.144Z,28.06
2018-09-06T12:40:34.582Z,28.09
2018-09-06T12:43:08.025Z,27.85
2018-09-06T12:45:41.491Z,27.77
2018-09-06T12:48:14.916Z,27.78
2018-09-06T12:50:48.324Z,27.74
2018-09-06T12:53:21.760Z,27.77
2018-09-06T12:55:55.276Z,27.91
2018-09-06T12:58:28.676Z,27.99
2018-09-06T13:01:02.180Z,28.05
2018-09-06T13:03:35.630Z,28.00
2018-09-06T13:06:09.133Z,27.99
2018-09-06T13:08:42.536Z,28.10
2018-09-06T13:11:16.004Z,27.99
2018-09-06T13:13:50.047Z,27.93
2018-09-06T13:16:23.464Z,27.92
2018-09-06T13:18:56.943Z,27.88
2018-09-06T13:21:30.359Z,27.74
2018-09-06T13:24:03.748Z,27.66
2018-09-06T13:26:37.197Z,27.42
2018-09-06T13:29:10.673Z,27.49
2018-09-06T13:31:44.124Z,27.46
2018-09-06T13:34:17.510Z,27.51
2018-09-06T13:36:50.917Z,27.52
2018-09-06T13:39:24.495Z,27.52
2018-09-06T13:41:57.957Z,27.55
2018-09-06T13:44:31.345Z,27.60
2018-09-06T13:47:04.771Z,27.75
2018-09-06T13:49:38.184Z,27.58
2018-09-06T13:52:18.217Z,27.53
2018-09-06T13:54:51.530Z,27.66
2018-09-06T13:57:25.031Z,27.76
2018-09-06T13:59:58.479Z,27.66
2018-09-06T14:02:31.848Z,27.73
2018-09-06T14:05:05.311Z,27.73
2018-09-06T14:07:38.843Z,27.78
2018-09-06T14:10:12.232Z,27.77
2018-09-06T14:12:45.629Z,27.82
2018-09-06T14:15:19.051Z,27.91
2018-09-06T14:17:52.459Z,28.06
2018-09-06T14:20:25.867Z,28.01
2018-09-06T14:22:59.279Z,28.04
2018-09-06T14:25:33.731Z,28.11
2018-09-06T14:28:07.197Z,28.25
2018-09-06T14:30:40.629Z,28.21
2018-09-06T14:33:14.061Z,28.25
2018-09-06T14:35:47.451Z,28.27
2018-09-06T14:38:39.210Z,28.29
2018-09-06T14:41:12.546Z,28.23
2018-09-06T14:43:45.922Z,28.13
2018-09-06T14:46:19.218Z,28.09
2018-09-06T14:48:53.075Z,28.03
2018-09-06T14:51:26.413Z,28.05
2018-09-06T14:53:59.826Z,28.07
2018-09-06T14:56:34.177Z,28.12
2018-09-06T14:59:07.503Z,28.18
2018-09-06T15:01:40.850Z,28.12
2018-09-06T15:04:14.297Z,28.12
2018-09-06T15:06:47.589Z,28.13
2018-09-06T15:09:21.393Z,27.98
2018-09-06T15:11:54.921Z,27.97
2018-09-06T15:14:28.272Z,27.75
2018-09-06T15:17:01.595Z,27.68
2018-09-06T15:19:35.692Z,27.62
2018-09-06T15:22:09.445Z,27.66
2018-09-06T15:24:42.804Z,27.65
2018-09-06T15:27:16.115Z,27.63
2018-09-06T15:29:49.469Z,27.50
2018-09-06T15:32:23.530Z,27.47
2018-09-06T15:34:56.835Z,27.50
2018-09-06T15:37:30.157Z,27.59
2018-09-06T15:40:03.500Z,27.62
2018-09-06T15:42:38.785Z,27.53
2018-09-06T15:45:12.122Z,27.36
2018-09-06T15:47:45.437Z,27.39
2018-09-06T15:50:18.760Z,27.38
2018-09-06T15:52:52.325Z,27.43
2018-09-06T15:55:25.634Z,27.36
2018-09-06T15:57:58.933Z,27.24
2018-09-06T16:00:32.282Z,27.24
2018-09-06T16:03:06.509Z,27.24
2018-09-06T16:05:39.861Z,27.20
2018-09-06T16:08:13.203Z,27.18
2018-09-06T16:10:46.587Z,27.14
2018-09-06T16:13:19.909Z,27.08
2018-09-06T16:15:53.842Z,26.94
2018-09-06T16:18:27.180Z,26.61
2018-09-06T16:21:00.663Z,26.43
2018-09-06T16:23:34.275Z,26.19
2018-09-06T16:26:07.555Z,26.04
2018-09-06T16:28:41.825Z,25.88
2018-09-06T16:31:15.136Z,25.80
2018-09-06T16:33:49.524Z,25.65
2018-09-06T16:36:22.842Z,25.56
2018-09-06T16:38:56.324Z,25.46
2018-09-06T16:41:31.000Z,25.39
2018-09-06T16:44:04.323Z,25.17
2018-09-06T16:46:37.896Z,25.06
2018-09-06T16:49:11.244Z,24.92
2018-09-06T16:51:44.555Z,24.85
2018-09-06T16:54:18.116Z,24.70
2018-09-06T16:56:51.475Z,24.56
2018-09-06T16:59:24.788Z,24.26
2018-09-06T17:01:58.166Z,24.05
2018-09-06T17:04:31.550Z,23.87
2018-09-06T17:07:04.910Z,23.70
2018-09-06T17:09:38.410Z,23.61
2018-09-06T17:12:12.558Z,23.52
2018-09-06T17:14:45.930Z,23.30
2018-09-06T17:17:19.236Z,23.02
2018-09-06T17:19:52.585Z,22.95
2018-09-06T17:22:26.052Z,22.83
2018-09-06T17:24:59.391Z,22.70
2018-09-06T17:27:32.986Z,22.60
2018-09-06T17:30:06.446Z,22.57
2018-09-06T17:32:39.889Z,22.54
2018-09-06T17:35:13.283Z,22.41
2018-09-06T17:37:46.609Z,22.29
2018-09-06T17:40:20.099Z,22.18
2018-09-06T17:42:53.695Z,22.07
2018-09-06T17:45:27.045Z,22.03
2018-09-06T17:48:00.516Z,21.97
2018-09-06T17:50:33.835Z,21.93
2018-09-06T17:53:07.272Z,21.90
2018-09-06T17:55:40.594Z,21.84
2018-09-06T17:58:13.910Z,21.76
2018-09-06T18:01:04.269Z,21.48
2018-09-06T18:03:37.645Z,21.48
2018-09-06T18:06:16.100Z,21.51
2018-09-06T18:08:50.688Z,21.50
2018-09-06T18:11:24.130Z,21.42
2018-09-06T18:13:57.834Z,21.36
2018-09-06T18:16:31.284Z,21.32
2018-09-06T18:19:04.619Z,21.26
2018-09-06T18:21:37.965Z,21.23
2018-09-06T18:24:13.345Z,21.20
2018-09-06T18:26:46.669Z,21.18
2018-09-06T18:29:19.972Z,21.16
2018-09-06T18:31:53.355Z,21.16
2018-09-06T18:34:26.643Z,21.13
2018-09-06T18:37:00.133Z,21.16
2018-09-06T18:39:33.424Z,21.16
2018-09-06T18:42:06.910Z,21.16
2018-09-06T18:44:40.234Z,21.16
2018-09-06T18:47:13.645Z,21.16
2018-09-06T18:49:47.108Z,21.16
2018-09-06T18:52:20.402Z,21.14
2018-09-06T18:54:53.763Z,21.12
2018-09-06T18:57:27.169Z,21.12
2018-09-06T19:00:00.477Z,21.13
2018-09-06T19:02:33.888Z,21.13
2018-09-06T19:05:07.241Z,21.13
2018-09-06T19:07:41.531Z,21.11
2018-09-06T19:10:15.213Z,21.03
2018-09-06T19:12:48.658Z,21.00
2018-09-06T19:15:24.950Z,20.93
2018-09-06T19:17:58.285Z,20.97
2018-09-06T19:20:31.609Z,20.93
2018-09-06T19:23:04.921Z,20.90
2018-09-06T19:25:38.402Z,20.91
2018-09-06T19:28:11.762Z,20.91
2018-09-06T19:30:45.081Z,20.89
2018-09-06T19:33:18.387Z,20.91
2018-09-06T19:35:51.701Z,20.95
2018-09-06T19:38:25.058Z,20.97
2018-09-06T19:40:58.365Z,20.98
2018-09-06T19:43:31.701Z,21.02
2018-09-06T19:46:05.021Z,21.02
2018-09-06T19:48:38.373Z,21.03
2018-09-06T19:51:11.680Z,21.01
2018-09-06T19:53:45.009Z,21.03
2018-09-06T19:56:18.324Z,21.06
2018-09-06T19:58:51.756Z,21.00
2018-09-06T20:01:25.082Z,21.04
2018-09-06T20:03:58.418Z,21.07
2018-09-06T20:06:31.718Z,21.05
2018-09-06T20:09:06.473Z,21.02
2018-09-06T20:11:39.852Z,20.98
2018-09-06T20:14:13.285Z,20.82
2018-09-06T20:16:46.673Z,20.79
2018-09-06T20:19:20.014Z,20.75
2018-09-06T20:21:54.421Z,20.75
2018-09-06T20:24:27.772Z,20.73
2018-09-06T20:27:01.089Z,20.72
2018-09-06T20:29:34.437Z,20.70
2018-09-06T20:32:07.758Z,20.66
2018-09-06T20:34:41.078Z,20.61
2018-09-06T20:37:14.466Z,20.59
2018-09-06T20:39:47.793Z,20.49
2018-09-06T20:42:21.089Z,20.50
2018-09-06T20:44:54.411Z,20.54
2018-09-06T20:47:27.710Z,20.56
2018-09-06T20:50:01.147Z,20.55
2018-09-06T20:52:34.509Z,20.51
2018-09-06T20:55:07.815Z,20.44
2018-09-06T20:57:41.135Z,20.38
2018-09-06T21:00:14.482Z,20.35
2018-09-06T21:02:47.796Z,20.36
2018-09-06T21:05:21.189Z,20.36
2018-09-06T21:07:54.557Z,20.38
2018-09-06T21:10:27.925Z,20.37
2018-09-06T21:13:01.220Z,20.33
2018-09-06T21:15:34.582Z,20.28
2018-09-06T21:18:07.886Z,20.24
2018-09-06T21:20:41.213Z,20.24
2018-09-06T21:23:14.521Z,20.23
2018-09-06T21:25:47.837Z,20.23
2018-09-06T21:28:21.206Z,20.23
2018-09-06T21:30:54.525Z,20.22
2018-09-06T21:33:27.846Z,20.20
2018-09-06T21:36:01.217Z,20.20
2018-09-06T21:38:34.541Z,20.20
2018-09-06T21:41:07.921Z,20.19
2018-09-06T21:43:41.224Z,20.17
2018-09-06T21:46:14.581Z,20.17
2018-09-06T21:48:47.924Z,20.15
2018-09-06T21:51:21.272Z,20.11
2018-09-06T21:53:54.588Z,20.11
2018-09-06T21:56:27.909Z,20.10
2018-09-06T21:59:01.253Z,20.10
2018-09-06T22:01:34.612Z,20.05
2018-09-06T22:04:08.773Z,20.02
2018-09-06T22:06:42.099Z,20.02
2018-09-06T22:09:15.424Z,19.96
2018-09-06T22:11:48.821Z,19.95
2018-09-06T22:14:22.159Z,19.93
2018-09-06T22:16:55.489Z,19.87
2018-09-06T22:19:28.792Z,19.82
2018-09-06T22:22:02.130Z,19.78
2018-09-06T22:24:35.449Z,19.74
2018-09-06T22:27:08.840Z,19.71
2018-09-06T22:29:42.155Z,19.68
2018-09-06T22:32:15.501Z,19.68
2018-09-06T22:34:48.804Z,19.66
2018-09-06T22:37:22.147Z,19.68
2018-09-06T22:39:55.461Z,19.67
2018-09-06T22:42:30.094Z,19.66
2018-09-06T22:45:03.620Z,19.67
2018-09-06T22:47:37.085Z,19.68
2018-09-06T22:50:10.526Z,19.68
2018-09-06T22:52:44.064Z,19.65
2018-09-06T22:55:17.529Z,19.65
2018-09-06T22:57:51.075Z,19.66
2018-09-06T23:00:28.722Z,19.66
2018-09-06T23:03:07.496Z,19.66
2018-09-06T23:05:40.807Z,19.66
2018-09-06T23:08:14.351Z,19.66
2018-09-06T23:10:47.775Z,19.68
2018-09-06T23:13:21.213Z,19.68
2018-09-06T23:15:54.540Z,19.65
2018-09-06T23:18:27.904Z,19.63
2018-09-06T23:21:01.243Z,19.65
2018-09-06T23:23:34.581Z,19.65
2018-09-06T23:26:07.993Z,19.65
2018-09-06T23:28:41.453Z,19.66
2018-09-06T23:31:14.757Z,19.67
2018-09-06T23:33:48.074Z,19.67
2018-09-06T23:36:21.409Z,19.67
2018-09-06T23:38:54.751Z,19.63
2018-09-06T23:41:28.064Z,19.65
2018-09-06T23:44:01.398Z,19.68
2018-09-06T23:46:34.733Z,19.66
2018-09-06T23:49:08.226Z,19.63
2018-09-06T23:51:41.570Z,19.65
2018-09-06T23:54:14.890Z,19.65
2018-09-06T23:56:48.206Z,19.65
2018-09-06T23:59:21.529Z,19.65
